Aviation Digital Data Service (ADDS)

Output produced by METARs form (1305 UTC 28 August 2014)
found at http://www.aviationweather.gov/adds/metars/
 
KSAV 281253Z 00000KT 10SM FEW140 23/18 A3005 RMK AO2 SLP176 T02330183